sensor_id;sensor_type;location;lat;lon;timestamp;P1;durP1;ratioP1;P2;durP2;ratioP2
11817;SDS011;5966;52.402;5.322;2023-01-19T00:01:39;3.03;;;0.90;;
11817;SDS011;5966;52.402;5.322;2023-01-19T00:04:07;2.27;;;0.50;;
11817;SDS011;5966;52.402;5.322;2023-01-19T00:06:36;1.67;;;0.80;;
11817;SDS011;5966;52.402;5.322;2023-01-19T00:09:04;2.13;;;0.40;;
11817;SDS011;5966;52.402;5.322;2023-01-19T00:11:32;3.47;;;0.70;;
11817;SDS011;5966;52.402;5.322;2023-01-19T00:14:00;5.77;;;0.70;;
11817;SDS011;5966;52.402;5.322;2023-01-19T00:16:28;1.97;;;0.60;;
11817;SDS011;5966;52.402;5.322;2023-01-19T00:18:56;2.63;;;0.50;;
11817;SDS011;5966;52.402;5.322;2023-01-19T00:21:24;2.87;;;0.80;;
11817;SDS011;5966;52.402;5.322;2023-01-19T00:23:54;5.37;;;0.90;;
11817;SDS011;5966;52.402;5.322;2023-01-19T00:26:22;3.70;;;0.67;;
11817;SDS011;5966;52.402;5.322;2023-01-19T00:28:50;1.57;;;1.00;;
11817;SDS011;5966;52.402;5.322;2023-01-19T00:31:18;2.30;;;0.93;;
11817;SDS011;5966;52.402;5.322;2023-01-19T00:33:47;4.00;;;1.10;;
11817;SDS011;5966;52.402;5.322;2023-01-19T00:36:16;0.93;;;0.60;;
11817;SDS011;5966;52.402;5.322;2023-01-19T00:38:45;3.47;;;0.83;;
11817;SDS011;5966;52.402;5.322;2023-01-19T00:41:15;1.97;;;0.97;;
11817;SDS011;5966;52.402;5.322;2023-01-19T00:43:43;2.60;;;0.67;;
11817;SDS011;5966;52.402;5.322;2023-01-19T00:46:10;2.83;;;0.93;;
11817;SDS011;5966;52.402;5.322;2023-01-19T00:48:38;3.77;;;1.20;;
11817;SDS011;5966;52.402;5.322;2023-01-19T00:51:06;3.20;;;0.70;;
11817;SDS011;5966;52.402;5.322;2023-01-19T00:53:33;0.80;;;0.60;;
11817;SDS011;5966;52.402;5.322;2023-01-19T00:56:01;3.97;;;1.00;;
11817;SDS011;5966;52.402;5.322;2023-01-19T00:58:31;1.77;;;0.90;;
11817;SDS011;5966;52.402;5.322;2023-01-19T01:00:58;4.97;;;1.00;;
11817;SDS011;5966;52.402;5.322;2023-01-19T01:03:29;2.53;;;0.90;;
11817;SDS011;5966;52.402;5.322;2023-01-19T01:05:57;1.73;;;0.90;;
11817;SDS011;5966;52.402;5.322;2023-01-19T01:08:25;1.23;;;0.57;;
11817;SDS011;5966;52.402;5.322;2023-01-19T01:10:53;0.80;;;0.60;;
11817;SDS011;5966;52.402;5.322;2023-01-19T01:13:21;0.50;;;0.33;;
11817;SDS011;5966;52.402;5.322;2023-01-19T01:15:54;2.47;;;0.83;;
11817;SDS011;5966;52.402;5.322;2023-01-19T01:18:24;0.63;;;0.37;;
11817;SDS011;5966;52.402;5.322;2023-01-19T01:20:52;1.93;;;0.60;;
11817;SDS011;5966;52.402;5.322;2023-01-19T01:23:26;3.70;;;0.63;;
11817;SDS011;5966;52.402;5.322;2023-01-19T01:25:54;1.30;;;0.50;;
11817;SDS011;5966;52.402;5.322;2023-01-19T01:28:22;0.40;;;0.30;;
11817;SDS011;5966;52.402;5.322;2023-01-19T01:30:51;1.17;;;0.30;;
11817;SDS011;5966;52.402;5.322;2023-01-19T01:33:21;1.37;;;0.17;;
11817;SDS011;5966;52.402;5.322;2023-01-19T01:36:07;0.87;;;0.27;;
11817;SDS011;5966;52.402;5.322;2023-01-19T01:38:36;0.20;;;0.20;;
11817;SDS011;5966;52.402;5.322;2023-01-19T01:41:04;1.07;;;0.50;;
11817;SDS011;5966;52.402;5.322;2023-01-19T01:43:43;1.70;;;0.30;;
11817;SDS011;5966;52.402;5.322;2023-01-19T01:46:14;0.30;;;0.20;;
11817;SDS011;5966;52.402;5.322;2023-01-19T01:48:44;1.40;;;0.10;;
11817;SDS011;5966;52.402;5.322;2023-01-19T01:51:17;0.30;;;0.17;;
11817;SDS011;5966;52.402;5.322;2023-01-19T01:54:00;0.90;;;0.20;;
11817;SDS011;5966;52.402;5.322;2023-01-19T01:56:35;1.40;;;0.40;;
11817;SDS011;5966;52.402;5.322;2023-01-19T01:59:04;2.07;;;0.43;;
11817;SDS011;5966;52.402;5.322;2023-01-19T02:01:36;2.07;;;0.50;;
11817;SDS011;5966;52.402;5.322;2023-01-19T02:04:22;3.07;;;0.70;;
11817;SDS011;5966;52.402;5.322;2023-01-19T02:06:50;4.10;;;1.00;;
11817;SDS011;5966;52.402;5.322;2023-01-19T02:09:36;3.83;;;0.70;;
11817;SDS011;5966;52.402;5.322;2023-01-19T02:12:22;2.17;;;0.67;;
11817;SDS011;5966;52.402;5.322;2023-01-19T02:15:13;4.33;;;0.87;;
11817;SDS011;5966;52.402;5.322;2023-01-19T02:17:44;5.33;;;1.17;;
11817;SDS011;5966;52.402;5.322;2023-01-19T02:20:12;4.60;;;1.23;;
11817;SDS011;5966;52.402;5.322;2023-01-19T02:22:43;4.43;;;1.10;;
11817;SDS011;5966;52.402;5.322;2023-01-19T02:25:16;4.40;;;1.00;;
11817;SDS011;5966;52.402;5.322;2023-01-19T02:27:46;3.33;;;1.13;;
11817;SDS011;5966;52.402;5.322;2023-01-19T02:30:15;4.23;;;1.10;;
11817;SDS011;5966;52.402;5.322;2023-01-19T02:32:44;2.53;;;0.87;;
11817;SDS011;5966;52.402;5.322;2023-01-19T02:35:13;6.60;;;1.37;;
11817;SDS011;5966;52.402;5.322;2023-01-19T02:37:41;3.23;;;1.00;;
11817;SDS011;5966;52.402;5.322;2023-01-19T02:40:10;6.50;;;1.20;;
11817;SDS011;5966;52.402;5.322;2023-01-19T02:42:42;4.53;;;0.90;;
11817;SDS011;5966;52.402;5.322;2023-01-19T02:45:16;6.07;;;1.53;;
11817;SDS011;5966;52.402;5.322;2023-01-19T02:47:47;4.93;;;1.10;;
11817;SDS011;5966;52.402;5.322;2023-01-19T02:53:20;4.50;;;1.07;;
11817;SDS011;5966;52.402;5.322;2023-01-19T02:56:20;3.17;;;1.10;;
11817;SDS011;5966;52.402;5.322;2023-01-19T02:58:57;4.50;;;1.10;;
11817;SDS011;5966;52.402;5.322;2023-01-19T03:01:33;4.50;;;1.10;;
11817;SDS011;5966;52.402;5.322;2023-01-19T03:04:13;3.43;;;1.10;;
11817;SDS011;5966;52.402;5.322;2023-01-19T03:06:51;7.87;;;1.40;;
11817;SDS011;5966;52.402;5.322;2023-01-19T03:09:27;5.47;;;1.50;;
11817;SDS011;5966;52.402;5.322;2023-01-19T03:12:00;2.03;;;0.97;;
11817;SDS011;5966;52.402;5.322;2023-01-19T03:14:32;3.80;;;1.00;;
11817;SDS011;5966;52.402;5.322;2023-01-19T03:17:08;2.87;;;0.60;;
11817;SDS011;5966;52.402;5.322;2023-01-19T03:19:38;2.13;;;0.97;;
11817;SDS011;5966;52.402;5.322;2023-01-19T03:22:08;3.00;;;0.80;;
11817;SDS011;5966;52.402;5.322;2023-01-19T03:24:40;2.97;;;0.80;;
11817;SDS011;5966;52.402;5.322;2023-01-19T03:27:10;1.60;;;0.87;;
11817;SDS011;5966;52.402;5.322;2023-01-19T03:29:45;3.73;;;0.80;;
11817;SDS011;5966;52.402;5.322;2023-01-19T03:32:17;3.80;;;0.90;;
11817;SDS011;5966;52.402;5.322;2023-01-19T03:34:49;5.67;;;1.10;;
11817;SDS011;5966;52.402;5.322;2023-01-19T03:37:19;3.67;;;1.37;;
11817;SDS011;5966;52.402;5.322;2023-01-19T03:39:49;2.73;;;1.00;;
11817;SDS011;5966;52.402;5.322;2023-01-19T03:42:17;6.60;;;1.27;;
11817;SDS011;5966;52.402;5.322;2023-01-19T03:44:47;6.57;;;1.03;;
11817;SDS011;5966;52.402;5.322;2023-01-19T03:47:17;7.00;;;1.47;;
11817;SDS011;5966;52.402;5.322;2023-01-19T03:49:46;6.50;;;1.23;;
11817;SDS011;5966;52.402;5.322;2023-01-19T03:52:16;3.70;;;1.20;;
11817;SDS011;5966;52.402;5.322;2023-01-19T03:54:44;6.03;;;1.40;;
11817;SDS011;5966;52.402;5.322;2023-01-19T03:57:12;9.00;;;2.00;;
11817;SDS011;5966;52.402;5.322;2023-01-19T03:59:40;8.10;;;1.63;;
11817;SDS011;5966;52.402;5.322;2023-01-19T04:02:09;7.80;;;2.03;;
11817;SDS011;5966;52.402;5.322;2023-01-19T04:04:37;8.63;;;1.73;;
11817;SDS011;5966;52.402;5.322;2023-01-19T04:07:06;13.40;;;2.20;;
11817;SDS011;5966;52.402;5.322;2023-01-19T04:09:35;12.83;;;2.27;;
11817;SDS011;5966;52.402;5.322;2023-01-19T04:12:03;11.80;;;2.37;;
11817;SDS011;5966;52.402;5.322;2023-01-19T04:14:31;13.93;;;2.00;;
11817;SDS011;5966;52.402;5.322;2023-01-19T04:16:59;9.63;;;2.03;;
11817;SDS011;5966;52.402;5.322;2023-01-19T04:19:28;7.17;;;1.80;;
11817;SDS011;5966;52.402;5.322;2023-01-19T04:21:56;7.63;;;1.77;;
11817;SDS011;5966;52.402;5.322;2023-01-19T04:24:24;8.17;;;2.03;;
11817;SDS011;5966;52.402;5.322;2023-01-19T04:26:53;9.47;;;1.80;;
11817;SDS011;5966;52.402;5.322;2023-01-19T04:29:21;9.43;;;2.00;;
11817;SDS011;5966;52.402;5.322;2023-01-19T04:31:49;9.20;;;2.33;;
11817;SDS011;5966;52.402;5.322;2023-01-19T04:34:17;6.77;;;1.50;;
11817;SDS011;5966;52.402;5.322;2023-01-19T04:36:46;8.33;;;1.87;;
11817;SDS011;5966;52.402;5.322;2023-01-19T04:39:16;4.33;;;1.57;;
11817;SDS011;5966;52.402;5.322;2023-01-19T04:41:44;4.00;;;1.47;;
11817;SDS011;5966;52.402;5.322;2023-01-19T04:44:12;8.50;;;1.83;;
11817;SDS011;5966;52.402;5.322;2023-01-19T04:46:39;5.53;;;1.67;;
11817;SDS011;5966;52.402;5.322;2023-01-19T04:49:08;5.33;;;1.50;;
11817;SDS011;5966;52.402;5.322;2023-01-19T04:51:36;6.60;;;1.70;;
11817;SDS011;5966;52.402;5.322;2023-01-19T04:54:05;6.17;;;1.63;;
11817;SDS011;5966;52.402;5.322;2023-01-19T04:56:34;6.97;;;1.83;;
11817;SDS011;5966;52.402;5.322;2023-01-19T04:59:02;7.67;;;2.03;;
11817;SDS011;5966;52.402;5.322;2023-01-19T05:01:30;8.57;;;2.07;;
11817;SDS011;5966;52.402;5.322;2023-01-19T05:03:58;11.47;;;2.50;;
11817;SDS011;5966;52.402;5.322;2023-01-19T05:06:26;8.30;;;2.20;;
11817;SDS011;5966;52.402;5.322;2023-01-19T05:08:54;9.33;;;1.97;;
11817;SDS011;5966;52.402;5.322;2023-01-19T05:11:23;9.93;;;2.23;;
11817;SDS011;5966;52.402;5.322;2023-01-19T05:13:51;12.63;;;2.47;;
11817;SDS011;5966;52.402;5.322;2023-01-19T05:16:19;9.30;;;2.50;;
11817;SDS011;5966;52.402;5.322;2023-01-19T05:18:47;14.57;;;2.27;;
11817;SDS011;5966;52.402;5.322;2023-01-19T05:21:15;13.03;;;2.60;;
11817;SDS011;5966;52.402;5.322;2023-01-19T05:23:43;13.03;;;2.23;;
11817;SDS011;5966;52.402;5.322;2023-01-19T05:26:10;11.70;;;2.10;;
11817;SDS011;5966;52.402;5.322;2023-01-19T05:28:40;14.23;;;2.70;;
11817;SDS011;5966;52.402;5.322;2023-01-19T05:31:08;10.17;;;2.53;;
11817;SDS011;5966;52.402;5.322;2023-01-19T05:33:36;15.57;;;2.50;;
11817;SDS011;5966;52.402;5.322;2023-01-19T05:36:04;12.50;;;2.97;;
11817;SDS011;5966;52.402;5.322;2023-01-19T05:38:32;11.50;;;2.50;;
11817;SDS011;5966;52.402;5.322;2023-01-19T05:41:01;18.07;;;3.20;;
11817;SDS011;5966;52.402;5.322;2023-01-19T05:43:29;10.83;;;2.37;;
11817;SDS011;5966;52.402;5.322;2023-01-19T05:45:59;12.10;;;2.17;;
11817;SDS011;5966;52.402;5.322;2023-01-19T05:48:27;14.43;;;2.63;;
11817;SDS011;5966;52.402;5.322;2023-01-19T05:50:58;8.17;;;2.13;;
11817;SDS011;5966;52.402;5.322;2023-01-19T05:53:26;9.53;;;2.00;;
11817;SDS011;5966;52.402;5.322;2023-01-19T05:55:57;6.10;;;2.10;;
11817;SDS011;5966;52.402;5.322;2023-01-19T05:58:26;6.83;;;2.10;;
11817;SDS011;5966;52.402;5.322;2023-01-19T06:00:54;9.97;;;1.93;;
11817;SDS011;5966;52.402;5.322;2023-01-19T06:03:24;7.07;;;1.70;;
11817;SDS011;5966;52.402;5.322;2023-01-19T06:05:52;8.80;;;1.80;;
11817;SDS011;5966;52.402;5.322;2023-01-19T06:08:23;8.83;;;2.13;;
11817;SDS011;5966;52.402;5.322;2023-01-19T06:10:51;6.37;;;1.73;;
11817;SDS011;5966;52.402;5.322;2023-01-19T06:13:19;12.60;;;2.47;;
11817;SDS011;5966;52.402;5.322;2023-01-19T06:15:48;8.43;;;2.20;;
11817;SDS011;5966;52.402;5.322;2023-01-19T06:18:24;8.33;;;1.73;;
11817;SDS011;5966;52.402;5.322;2023-01-19T06:20:52;10.07;;;2.13;;
11817;SDS011;5966;52.402;5.322;2023-01-19T06:23:23;6.23;;;1.67;;
11817;SDS011;5966;52.402;5.322;2023-01-19T06:25:52;7.23;;;2.03;;
11817;SDS011;5966;52.402;5.322;2023-01-19T06:28:20;9.90;;;1.63;;
11817;SDS011;5966;52.402;5.322;2023-01-19T06:30:48;9.37;;;1.80;;
11817;SDS011;5966;52.402;5.322;2023-01-19T06:33:16;11.73;;;2.30;;
11817;SDS011;5966;52.402;5.322;2023-01-19T06:35:47;16.27;;;2.23;;
11817;SDS011;5966;52.402;5.322;2023-01-19T06:38:16;8.17;;;1.87;;
11817;SDS011;5966;52.402;5.322;2023-01-19T06:40:44;9.63;;;2.07;;
11817;SDS011;5966;52.402;5.322;2023-01-19T06:43:18;7.40;;;1.87;;
11817;SDS011;5966;52.402;5.322;2023-01-19T06:45:46;9.17;;;2.27;;
11817;SDS011;5966;52.402;5.322;2023-01-19T06:48:15;8.97;;;1.73;;
11817;SDS011;5966;52.402;5.322;2023-01-19T06:50:44;10.13;;;2.90;;
11817;SDS011;5966;52.402;5.322;2023-01-19T06:53:13;7.20;;;1.87;;
11817;SDS011;5966;52.402;5.322;2023-01-19T06:55:42;10.63;;;2.07;;
11817;SDS011;5966;52.402;5.322;2023-01-19T06:58:10;8.80;;;2.00;;
11817;SDS011;5966;52.402;5.322;2023-01-19T07:00:38;9.83;;;1.70;;
11817;SDS011;5966;52.402;5.322;2023-01-19T07:03:08;10.50;;;2.27;;
11817;SDS011;5966;52.402;5.322;2023-01-19T07:05:42;8.27;;;1.80;;
11817;SDS011;5966;52.402;5.322;2023-01-19T07:08:10;6.27;;;1.43;;
11817;SDS011;5966;52.402;5.322;2023-01-19T07:10:41;8.93;;;1.50;;
11817;SDS011;5966;52.402;5.322;2023-01-19T07:13:29;4.73;;;1.40;;
11817;SDS011;5966;52.402;5.322;2023-01-19T07:15:58;7.53;;;1.83;;
11817;SDS011;5966;52.402;5.322;2023-01-19T07:18:26;7.20;;;1.70;;
11817;SDS011;5966;52.402;5.322;2023-01-19T07:20:55;5.50;;;1.70;;
11817;SDS011;5966;52.402;5.322;2023-01-19T07:23:23;10.70;;;1.30;;
11817;SDS011;5966;52.402;5.322;2023-01-19T07:25:56;9.30;;;1.67;;
11817;SDS011;5966;52.402;5.322;2023-01-19T07:28:26;8.90;;;1.73;;
11817;SDS011;5966;52.402;5.322;2023-01-19T07:30:55;6.77;;;1.73;;
11817;SDS011;5966;52.402;5.322;2023-01-19T07:33:23;10.60;;;1.77;;
11817;SDS011;5966;52.402;5.322;2023-01-19T07:35:52;10.60;;;1.97;;
11817;SDS011;5966;52.402;5.322;2023-01-19T07:38:20;9.83;;;1.67;;
11817;SDS011;5966;52.402;5.322;2023-01-19T07:40:48;7.60;;;1.83;;
11817;SDS011;5966;52.402;5.322;2023-01-19T07:43:17;8.67;;;2.07;;
11817;SDS011;5966;52.402;5.322;2023-01-19T07:45:45;6.90;;;1.73;;
11817;SDS011;5966;52.402;5.322;2023-01-19T07:48:13;6.27;;;1.73;;
11817;SDS011;5966;52.402;5.322;2023-01-19T07:50:41;6.87;;;1.77;;
11817;SDS011;5966;52.402;5.322;2023-01-19T07:53:10;6.57;;;1.53;;
11817;SDS011;5966;52.402;5.322;2023-01-19T07:55:38;12.07;;;1.73;;
11817;SDS011;5966;52.402;5.322;2023-01-19T07:58:05;11.53;;;2.00;;
11817;SDS011;5966;52.402;5.322;2023-01-19T08:00:35;5.63;;;1.87;;
11817;SDS011;5966;52.402;5.322;2023-01-19T08:03:04;8.80;;;1.70;;
11817;SDS011;5966;52.402;5.322;2023-01-19T08:05:34;6.57;;;2.10;;
11817;SDS011;5966;52.402;5.322;2023-01-19T08:08:02;6.70;;;1.83;;
11817;SDS011;5966;52.402;5.322;2023-01-19T08:10:31;7.40;;;2.27;;
11817;SDS011;5966;52.402;5.322;2023-01-19T08:13:00;12.50;;;2.07;;
11817;SDS011;5966;52.402;5.322;2023-01-19T08:15:28;8.60;;;2.17;;
11817;SDS011;5966;52.402;5.322;2023-01-19T08:17:58;5.27;;;2.10;;
11817;SDS011;5966;52.402;5.322;2023-01-19T08:20:27;6.97;;;2.63;;
11817;SDS011;5966;52.402;5.322;2023-01-19T08:22:56;7.57;;;2.40;;
11817;SDS011;5966;52.402;5.322;2023-01-19T08:25:30;7.30;;;1.70;;
11817;SDS011;5966;52.402;5.322;2023-01-19T08:27:59;9.63;;;1.87;;
11817;SDS011;5966;52.402;5.322;2023-01-19T08:30:27;7.17;;;2.00;;
11817;SDS011;5966;52.402;5.322;2023-01-19T08:32:57;5.83;;;1.40;;
11817;SDS011;5966;52.402;5.322;2023-01-19T08:35:30;6.37;;;2.30;;
11817;SDS011;5966;52.402;5.322;2023-01-19T08:37:58;11.60;;;2.10;;
11817;SDS011;5966;52.402;5.322;2023-01-19T08:40:27;10.83;;;2.47;;
11817;SDS011;5966;52.402;5.322;2023-01-19T08:42:56;8.77;;;2.10;;
11817;SDS011;5966;52.402;5.322;2023-01-19T08:45:28;6.03;;;1.73;;
11817;SDS011;5966;52.402;5.322;2023-01-19T08:47:58;2.83;;;1.40;;
11817;SDS011;5966;52.402;5.322;2023-01-19T08:50:27;6.20;;;1.90;;
11817;SDS011;5966;52.402;5.322;2023-01-19T08:52:56;7.87;;;2.17;;
11817;SDS011;5966;52.402;5.322;2023-01-19T08:55:25;3.73;;;1.50;;
11817;SDS011;5966;52.402;5.322;2023-01-19T08:57:55;6.17;;;1.80;;
11817;SDS011;5966;52.402;5.322;2023-01-19T09:00:25;5.97;;;1.63;;
11817;SDS011;5966;52.402;5.322;2023-01-19T09:02:56;6.10;;;1.67;;
11817;SDS011;5966;52.402;5.322;2023-01-19T09:05:27;6.93;;;1.50;;
11817;SDS011;5966;52.402;5.322;2023-01-19T09:07:56;6.50;;;1.70;;
11817;SDS011;5966;52.402;5.322;2023-01-19T09:10:25;10.00;;;1.57;;
11817;SDS011;5966;52.402;5.322;2023-01-19T09:12:56;4.63;;;1.47;;
11817;SDS011;5966;52.402;5.322;2023-01-19T09:15:24;6.83;;;2.20;;
11817;SDS011;5966;52.402;5.322;2023-01-19T09:17:53;5.23;;;1.77;;
11817;SDS011;5966;52.402;5.322;2023-01-19T09:20:22;7.50;;;1.83;;
11817;SDS011;5966;52.402;5.322;2023-01-19T09:22:50;13.20;;;1.97;;
11817;SDS011;5966;52.402;5.322;2023-01-19T09:25:18;9.03;;;1.70;;
11817;SDS011;5966;52.402;5.322;2023-01-19T09:27:46;6.27;;;1.53;;
11817;SDS011;5966;52.402;5.322;2023-01-19T09:30:15;7.13;;;1.43;;
11817;SDS011;5966;52.402;5.322;2023-01-19T09:32:44;7.77;;;1.97;;
11817;SDS011;5966;52.402;5.322;2023-01-19T09:35:12;4.40;;;1.47;;
11817;SDS011;5966;52.402;5.322;2023-01-19T09:37:45;9.00;;;1.83;;
11817;SDS011;5966;52.402;5.322;2023-01-19T09:40:14;3.90;;;1.23;;
11817;SDS011;5966;52.402;5.322;2023-01-19T09:42:46;7.70;;;1.43;;
11817;SDS011;5966;52.402;5.322;2023-01-19T09:45:22;11.17;;;1.70;;
11817;SDS011;5966;52.402;5.322;2023-01-19T09:47:55;4.10;;;1.43;;
11817;SDS011;5966;52.402;5.322;2023-01-19T09:50:27;7.57;;;1.33;;
11817;SDS011;5966;52.402;5.322;2023-01-19T09:53:01;6.07;;;2.23;;
11817;SDS011;5966;52.402;5.322;2023-01-19T09:55:39;6.87;;;1.80;;
11817;SDS011;5966;52.402;5.322;2023-01-19T09:58:10;3.57;;;1.20;;
11817;SDS011;5966;52.402;5.322;2023-01-19T10:00:41;4.90;;;1.60;;
11817;SDS011;5966;52.402;5.322;2023-01-19T10:03:14;6.13;;;1.50;;
11817;SDS011;5966;52.402;5.322;2023-01-19T10:05:44;8.07;;;1.93;;
11817;SDS011;5966;52.402;5.322;2023-01-19T10:08:19;5.37;;;1.30;;
11817;SDS011;5966;52.402;5.322;2023-01-19T10:10:53;4.70;;;1.40;;
11817;SDS011;5966;52.402;5.322;2023-01-19T10:13:27;7.23;;;1.37;;
11817;SDS011;5966;52.402;5.322;2023-01-19T10:16:03;6.20;;;1.57;;
11817;SDS011;5966;52.402;5.322;2023-01-19T10:18:40;7.87;;;1.50;;
11817;SDS011;5966;52.402;5.322;2023-01-19T10:21:16;4.37;;;1.23;;
11817;SDS011;5966;52.402;5.322;2023-01-19T10:23:49;6.47;;;1.27;;
11817;SDS011;5966;52.402;5.322;2023-01-19T10:26:21;7.37;;;2.07;;
11817;SDS011;5966;52.402;5.322;2023-01-19T10:28:52;3.33;;;1.30;;
11817;SDS011;5966;52.402;5.322;2023-01-19T10:31:22;8.17;;;1.30;;
11817;SDS011;5966;52.402;5.322;2023-01-19T10:33:51;4.73;;;1.07;;
11817;SDS011;5966;52.402;5.322;2023-01-19T10:36:21;7.03;;;1.70;;
11817;SDS011;5966;52.402;5.322;2023-01-19T10:38:54;5.33;;;1.83;;
11817;SDS011;5966;52.402;5.322;2023-01-19T10:41:25;4.73;;;1.20;;
11817;SDS011;5966;52.402;5.322;2023-01-19T10:43:59;4.33;;;1.27;;
11817;SDS011;5966;52.402;5.322;2023-01-19T10:46:31;2.10;;;1.03;;
11817;SDS011;5966;52.402;5.322;2023-01-19T10:49:03;3.83;;;1.10;;
11817;SDS011;5966;52.402;5.322;2023-01-19T10:51:32;2.53;;;0.97;;
11817;SDS011;5966;52.402;5.322;2023-01-19T10:54:02;7.13;;;1.53;;
11817;SDS011;5966;52.402;5.322;2023-01-19T10:56:31;3.13;;;1.07;;
11817;SDS011;5966;52.402;5.322;2023-01-19T10:59:02;3.43;;;1.13;;
11817;SDS011;5966;52.402;5.322;2023-01-19T11:01:32;4.67;;;1.13;;
11817;SDS011;5966;52.402;5.322;2023-01-19T11:04:18;7.37;;;1.43;;
11817;SDS011;5966;52.402;5.322;2023-01-19T11:06:48;5.43;;;1.43;;
11817;SDS011;5966;52.402;5.322;2023-01-19T11:09:18;3.67;;;1.00;;
11817;SDS011;5966;52.402;5.322;2023-01-19T11:11:49;4.33;;;1.20;;
11817;SDS011;5966;52.402;5.322;2023-01-19T11:14:19;2.67;;;1.20;;
11817;SDS011;5966;52.402;5.322;2023-01-19T11:16:50;5.00;;;2.23;;
11817;SDS011;5966;52.402;5.322;2023-01-19T11:19:23;5.40;;;1.83;;
11817;SDS011;5966;52.402;5.322;2023-01-19T11:22:05;5.87;;;1.70;;
11817;SDS011;5966;52.402;5.322;2023-01-19T11:24:37;6.00;;;1.43;;
11817;SDS011;5966;52.402;5.322;2023-01-19T11:27:05;6.90;;;1.20;;
11817;SDS011;5966;52.402;5.322;2023-01-19T11:29:33;2.83;;;0.93;;
11817;SDS011;5966;52.402;5.322;2023-01-19T11:32:10;5.03;;;1.20;;
11817;SDS011;5966;52.402;5.322;2023-01-19T11:34:45;2.97;;;0.93;;
11817;SDS011;5966;52.402;5.322;2023-01-19T11:37:24;3.47;;;1.13;;
11817;SDS011;5966;52.402;5.322;2023-01-19T11:40:00;2.83;;;0.87;;
11817;SDS011;5966;52.402;5.322;2023-01-19T11:42:34;5.50;;;1.10;;
11817;SDS011;5966;52.402;5.322;2023-01-19T11:45:05;4.27;;;1.00;;
11817;SDS011;5966;52.402;5.322;2023-01-19T11:47:40;3.80;;;1.03;;
11817;SDS011;5966;52.402;5.322;2023-01-19T11:50:13;2.90;;;0.80;;
11817;SDS011;5966;52.402;5.322;2023-01-19T11:52:49;3.07;;;0.93;;
11817;SDS011;5966;52.402;5.322;2023-01-19T11:55:24;2.23;;;0.90;;
11817;SDS011;5966;52.402;5.322;2023-01-19T11:57:59;5.07;;;0.83;;
11817;SDS011;5966;52.402;5.322;2023-01-19T12:00:31;5.90;;;1.00;;
11817;SDS011;5966;52.402;5.322;2023-01-19T12:03:06;3.53;;;1.13;;
11817;SDS011;5966;52.402;5.322;2023-01-19T12:05:40;5.53;;;1.10;;
11817;SDS011;5966;52.402;5.322;2023-01-19T12:08:15;5.83;;;1.00;;
11817;SDS011;5966;52.402;5.322;2023-01-19T12:10:48;5.57;;;1.20;;
11817;SDS011;5966;52.402;5.322;2023-01-19T12:13:19;1.47;;;0.77;;
11817;SDS011;5966;52.402;5.322;2023-01-19T12:15:50;5.30;;;1.00;;
11817;SDS011;5966;52.402;5.322;2023-01-19T12:18:23;3.53;;;1.17;;
11817;SDS011;5966;52.402;5.322;2023-01-19T12:20:54;3.23;;;0.80;;
11817;SDS011;5966;52.402;5.322;2023-01-19T12:23:27;3.20;;;0.97;;
11817;SDS011;5966;52.402;5.322;2023-01-19T12:26:25;2.50;;;1.07;;
11817;SDS011;5966;52.402;5.322;2023-01-19T12:28:56;5.53;;;0.87;;
11817;SDS011;5966;52.402;5.322;2023-01-19T12:31:26;3.27;;;0.90;;
11817;SDS011;5966;52.402;5.322;2023-01-19T12:33:55;3.23;;;1.07;;
11817;SDS011;5966;52.402;5.322;2023-01-19T12:36:59;3.17;;;0.70;;
11817;SDS011;5966;52.402;5.322;2023-01-19T12:39:29;1.73;;;0.80;;
11817;SDS011;5966;52.402;5.322;2023-01-19T12:42:10;5.37;;;0.90;;
11817;SDS011;5966;52.402;5.322;2023-01-19T12:44:40;1.50;;;0.73;;
11817;SDS011;5966;52.402;5.322;2023-01-19T12:47:19;3.70;;;0.93;;
11817;SDS011;5966;52.402;5.322;2023-01-19T12:49:50;3.43;;;1.03;;
11817;SDS011;5966;52.402;5.322;2023-01-19T12:52:27;4.43;;;0.93;;
11817;SDS011;5966;52.402;5.322;2023-01-19T12:55:00;3.53;;;1.00;;
11817;SDS011;5966;52.402;5.322;2023-01-19T12:57:34;2.37;;;0.93;;
11817;SDS011;5966;52.402;5.322;2023-01-19T13:00:07;9.70;;;1.43;;
11817;SDS011;5966;52.402;5.322;2023-01-19T13:02:55;3.70;;;0.80;;
11817;SDS011;5966;52.402;5.322;2023-01-19T13:08:28;2.90;;;0.77;;
11817;SDS011;5966;52.402;5.322;2023-01-19T13:11:27;2.93;;;0.97;;
11817;SDS011;5966;52.402;5.322;2023-01-19T13:17:02;5.67;;;1.17;;
11817;SDS011;5966;52.402;5.322;2023-01-19T13:19:51;2.93;;;1.10;;
11817;SDS011;5966;52.402;5.322;2023-01-19T13:25:31;4.77;;;1.03;;
11817;SDS011;5966;52.402;5.322;2023-01-19T13:28:03;3.37;;;1.20;;
11817;SDS011;5966;52.402;5.322;2023-01-19T13:30:38;2.70;;;1.07;;
11817;SDS011;5966;52.402;5.322;2023-01-19T13:33:21;8.23;;;1.30;;
11817;SDS011;5966;52.402;5.322;2023-01-19T13:35:52;3.47;;;1.23;;
11817;SDS011;5966;52.402;5.322;2023-01-19T13:38:22;6.50;;;1.90;;
11817;SDS011;5966;52.402;5.322;2023-01-19T13:40:51;3.87;;;1.10;;
11817;SDS011;5966;52.402;5.322;2023-01-19T13:43:22;3.03;;;1.23;;
11817;SDS011;5966;52.402;5.322;2023-01-19T13:45:54;4.30;;;1.67;;
11817;SDS011;5966;52.402;5.322;2023-01-19T13:48:24;4.50;;;1.43;;
11817;SDS011;5966;52.402;5.322;2023-01-19T13:50:55;6.70;;;1.67;;
11817;SDS011;5966;52.402;5.322;2023-01-19T13:53:29;3.77;;;1.30;;
11817;SDS011;5966;52.402;5.322;2023-01-19T13:56:07;3.27;;;1.37;;
11817;SDS011;5966;52.402;5.322;2023-01-19T13:58:42;3.83;;;1.50;;
11817;SDS011;5966;52.402;5.322;2023-01-19T14:01:23;4.67;;;1.67;;
11817;SDS011;5966;52.402;5.322;2023-01-19T14:03:55;2.53;;;1.13;;
11817;SDS011;5966;52.402;5.322;2023-01-19T14:06:29;4.37;;;1.40;;
11817;SDS011;5966;52.402;5.322;2023-01-19T14:12:05;4.03;;;1.23;;
11817;SDS011;5966;52.402;5.322;2023-01-19T14:14:36;4.63;;;1.30;;
11817;SDS011;5966;52.402;5.322;2023-01-19T14:17:04;6.67;;;1.47;;
11817;SDS011;5966;52.402;5.322;2023-01-19T14:19:51;4.37;;;1.30;;
11817;SDS011;5966;52.402;5.322;2023-01-19T14:22:25;4.27;;;1.10;;
11817;SDS011;5966;52.402;5.322;2023-01-19T14:30:54;3.60;;;1.30;;
11817;SDS011;5966;52.402;5.322;2023-01-19T14:33:34;4.23;;;1.17;;
11817;SDS011;5966;52.402;5.322;2023-01-19T14:36:13;2.03;;;0.97;;
11817;SDS011;5966;52.402;5.322;2023-01-19T14:38:52;2.50;;;1.13;;
11817;SDS011;5966;52.402;5.322;2023-01-19T14:41:23;1.87;;;1.23;;
11817;SDS011;5966;52.402;5.322;2023-01-19T14:43:53;4.27;;;1.40;;
11817;SDS011;5966;52.402;5.322;2023-01-19T14:46:22;5.40;;;1.50;;
11817;SDS011;5966;52.402;5.322;2023-01-19T14:48:51;6.57;;;1.30;;
11817;SDS011;5966;52.402;5.322;2023-01-19T14:51:26;2.93;;;1.30;;
11817;SDS011;5966;52.402;5.322;2023-01-19T14:53:55;4.23;;;1.13;;
11817;SDS011;5966;52.402;5.322;2023-01-19T14:56:26;5.00;;;1.20;;
11817;SDS011;5966;52.402;5.322;2023-01-19T14:58:55;5.50;;;1.07;;
11817;SDS011;5966;52.402;5.322;2023-01-19T15:01:25;5.47;;;1.13;;
11817;SDS011;5966;52.402;5.322;2023-01-19T15:03:54;2.13;;;0.90;;
11817;SDS011;5966;52.402;5.322;2023-01-19T15:06:23;6.43;;;1.73;;
11817;SDS011;5966;52.402;5.322;2023-01-19T15:08:53;2.40;;;1.07;;
11817;SDS011;5966;52.402;5.322;2023-01-19T15:11:21;3.43;;;1.20;;
11817;SDS011;5966;52.402;5.322;2023-01-19T15:13:52;5.40;;;1.20;;
11817;SDS011;5966;52.402;5.322;2023-01-19T15:16:20;3.20;;;1.17;;
11817;SDS011;5966;52.402;5.322;2023-01-19T15:18:49;2.40;;;0.90;;
11817;SDS011;5966;52.402;5.322;2023-01-19T15:21:17;3.03;;;1.10;;
11817;SDS011;5966;52.402;5.322;2023-01-19T15:23:49;2.60;;;0.80;;
11817;SDS011;5966;52.402;5.322;2023-01-19T15:26:18;2.43;;;1.00;;
11817;SDS011;5966;52.402;5.322;2023-01-19T15:28:47;2.03;;;0.80;;
11817;SDS011;5966;52.402;5.322;2023-01-19T15:31:16;1.43;;;1.00;;
11817;SDS011;5966;52.402;5.322;2023-01-19T15:33:47;3.67;;;1.20;;
11817;SDS011;5966;52.402;5.322;2023-01-19T15:36:15;3.23;;;1.17;;
11817;SDS011;5966;52.402;5.322;2023-01-19T15:38:44;4.53;;;0.97;;
11817;SDS011;5966;52.402;5.322;2023-01-19T15:41:15;1.73;;;1.03;;
11817;SDS011;5966;52.402;5.322;2023-01-19T15:43:48;4.93;;;1.53;;
11817;SDS011;5966;52.402;5.322;2023-01-19T15:46:17;3.10;;;1.10;;